createdAt,value
2023-02-14T00:01:20.611Z,99.90
2023-02-14T00:03:49.376Z,99.90
2023-02-14T00:06:17.426Z,99.90
2023-02-14T00:11:13.970Z,99.90
2023-02-14T00:14:01.526Z,99.90
2023-02-14T00:16:28.835Z,99.90
2023-02-14T00:19:05.466Z,99.90
2023-02-14T00:21:36.585Z,99.90
2023-02-14T00:24:10.997Z,99.90
2023-02-14T00:26:38.836Z,99.90
2023-02-14T00:29:07.663Z,99.90
2023-02-14T00:31:35.875Z,99.90
2023-02-14T00:34:04.650Z,99.90
2023-02-14T00:36:32.249Z,99.90
2023-02-14T00:38:59.508Z,99.90
2023-02-14T00:41:26.854Z,99.90
2023-02-14T00:43:54.472Z,99.90
2023-02-14T00:46:23.859Z,99.90
2023-02-14T00:48:51.799Z,99.90
2023-02-14T00:51:19.845Z,99.90
2023-02-14T00:53:48.768Z,99.90
2023-02-14T00:56:17.043Z,99.90
2023-02-14T00:58:45.054Z,99.90
2023-02-14T01:01:12.793Z,99.90
2023-02-14T01:03:40.273Z,99.90
2023-02-14T01:06:08.475Z,99.90
2023-02-14T01:08:35.894Z,99.90
2023-02-14T01:11:10.137Z,99.90
2023-02-14T01:13:37.870Z,99.90
2023-02-14T01:16:10.614Z,99.90
2023-02-14T01:18:38.636Z,99.90
2023-02-14T01:21:20.148Z,99.90
2023-02-14T01:23:51.605Z,99.90
2023-02-14T01:26:21.014Z,99.90
2023-02-14T01:31:28.494Z,99.90
2023-02-14T01:33:58.605Z,99.90
2023-02-14T01:36:32.509Z,99.90
2023-02-14T01:39:03.023Z,99.90
2023-02-14T01:41:32.818Z,99.90
2023-02-14T01:44:02.073Z,99.90
2023-02-14T01:46:32.730Z,99.90
2023-02-14T01:49:10.308Z,99.90
2023-02-14T01:51:42.976Z,99.90
2023-02-14T01:54:11.617Z,99.90
2023-02-14T01:56:43.714Z,99.90
2023-02-14T01:59:17.101Z,99.90
2023-02-14T02:01:46.831Z,99.90
2023-02-14T02:04:19.071Z,99.90
2023-02-14T02:06:52.324Z,99.90
2023-02-14T02:09:34.143Z,99.90
2023-02-14T02:12:02.241Z,99.90
2023-02-14T02:14:29.634Z,99.90
2023-02-14T02:17:21.643Z,99.90
2023-02-14T02:20:07.507Z,99.90
2023-02-14T02:22:59.565Z,99.90
2023-02-14T02:25:51.079Z,99.90
2023-02-14T02:28:40.252Z,99.90
2023-02-14T02:31:54.578Z,99.90
2023-02-14T02:34:37.436Z,99.90
2023-02-14T02:37:25.412Z,99.90
2023-02-14T02:40:22.231Z,99.90
2023-02-14T02:43:20.882Z,99.90
2023-02-14T02:46:14.494Z,99.90
2023-02-14T02:48:58.441Z,99.90
2023-02-14T02:52:16.227Z,99.90
2023-02-14T02:54:50.114Z,99.90
2023-02-14T02:57:23.700Z,99.90
2023-02-14T02:59:53.620Z,99.90
2023-02-14T03:02:31.006Z,99.90
2023-02-14T03:05:05.353Z,99.90
2023-02-14T03:07:41.494Z,99.90
2023-02-14T03:10:30.079Z,99.90
2023-02-14T03:12:57.627Z,99.90
2023-02-14T03:15:48.317Z,99.90
2023-02-14T03:18:34.534Z,99.90
2023-02-14T03:21:30.821Z,99.90
2023-02-14T03:24:15.148Z,99.90
2023-02-14T03:26:59.429Z,99.90
2023-02-14T03:29:43.608Z,99.90
2023-02-14T03:32:35.284Z,99.90
2023-02-14T03:35:24.085Z,99.90
2023-02-14T03:38:15.236Z,99.90
2023-02-14T03:40:45.400Z,99.90
2023-02-14T03:43:35.644Z,99.90
2023-02-14T03:46:11.861Z,99.90
2023-02-14T03:48:40.648Z,99.90
2023-02-14T03:51:11.792Z,99.90
2023-02-14T03:53:49.901Z,99.90
2023-02-14T03:56:39.992Z,99.90
2023-02-14T03:59:21.723Z,99.90
2023-02-14T04:02:11.036Z,99.90
2023-02-14T04:04:45.045Z,99.90
2023-02-14T04:07:18.565Z,99.90
2023-02-14T04:09:46.421Z,99.90
2023-02-14T04:12:14.748Z,99.90
2023-02-14T04:17:28.315Z,99.90
2023-02-14T04:19:55.709Z,99.90
2023-02-14T04:22:22.983Z,99.90
2023-02-14T04:24:50.209Z,99.90
2023-02-14T04:27:17.467Z,99.90
2023-02-14T04:29:47.615Z,99.90
2023-02-14T04:32:18.631Z,99.90
2023-02-14T04:34:46.324Z,99.90
2023-02-14T04:37:15.635Z,99.90
2023-02-14T04:39:42.976Z,99.90
2023-02-14T04:42:10.306Z,99.90
2023-02-14T04:44:40.386Z,99.90
2023-02-14T04:47:08.507Z,99.90
2023-02-14T04:49:36.449Z,99.90
2023-02-14T04:52:04.885Z,99.90
2023-02-14T04:54:32.599Z,99.90
2023-02-14T04:56:59.835Z,99.90
2023-02-14T04:59:27.147Z,99.90
2023-02-14T05:01:54.719Z,99.90
2023-02-14T05:04:22.012Z,99.90
2023-02-14T05:06:49.303Z,99.90
2023-02-14T05:09:16.557Z,99.90
2023-02-14T05:11:43.783Z,99.90
2023-02-14T05:14:11.316Z,99.90
2023-02-14T05:16:38.701Z,99.90
2023-02-14T05:19:06.152Z,99.90
2023-02-14T05:21:33.487Z,99.90
2023-02-14T05:24:01.481Z,99.90
2023-02-14T05:26:29.223Z,99.90
2023-02-14T05:28:56.673Z,99.90
2023-02-14T05:31:24.055Z,99.90
2023-02-14T05:33:51.373Z,99.90
2023-02-14T05:36:18.661Z,99.90
2023-02-14T05:38:45.967Z,99.90
2023-02-14T05:41:13.180Z,99.90
2023-02-14T05:43:40.439Z,99.90
2023-02-14T05:48:35.718Z,99.90
2023-02-14T05:51:07.216Z,99.90
2023-02-14T05:53:34.528Z,99.90
2023-02-14T05:58:30.068Z,99.90
2023-02-14T06:00:58.451Z,99.90
2023-02-14T06:03:25.957Z,99.90
2023-02-14T06:05:53.267Z,99.90
2023-02-14T06:10:48.161Z,99.90
2023-02-14T06:13:15.515Z,99.90
2023-02-14T06:15:42.824Z,99.90
2023-02-14T06:18:10.102Z,99.90
2023-02-14T06:20:37.417Z,99.90
2023-02-14T06:23:05.034Z,99.90
2023-02-14T06:25:32.787Z,99.90
2023-02-14T06:28:00.295Z,99.90
2023-02-14T06:30:28.377Z,99.90
2023-02-14T06:32:55.802Z,99.90
2023-02-14T06:37:51.009Z,99.90
2023-02-14T06:40:19.641Z,99.90
2023-02-14T06:45:14.786Z,99.90
2023-02-14T06:47:42.107Z,99.90
2023-02-14T06:50:11.681Z,99.90
2023-02-14T06:52:39.202Z,99.90
2023-02-14T06:55:06.905Z,99.90
2023-02-14T07:00:01.835Z,99.90
2023-02-14T07:02:29.196Z,99.90
2023-02-14T07:04:56.581Z,99.90
2023-02-14T07:07:23.901Z,99.90
2023-02-14T07:09:51.667Z,99.90
2023-02-14T07:12:18.899Z,99.90
2023-02-14T07:14:46.217Z,99.90
2023-02-14T07:19:41.092Z,99.90
2023-02-14T07:22:08.457Z,99.90
2023-02-14T07:24:35.730Z,99.90
2023-02-14T07:27:03.056Z,99.90
2023-02-14T07:29:30.451Z,99.90
2023-02-14T07:31:57.792Z,99.90
2023-02-14T07:34:25.320Z,99.90
2023-02-14T07:36:52.584Z,99.90
2023-02-14T07:39:19.987Z,99.90
2023-02-14T07:41:47.289Z,99.90
2023-02-14T07:44:19.584Z,99.90
2023-02-14T07:46:46.924Z,99.90
2023-02-14T07:49:14.484Z,99.90
2023-02-14T07:51:42.945Z,99.90
2023-02-14T07:54:10.273Z,99.90
2023-02-14T07:56:37.555Z,99.90
2023-02-14T08:01:32.550Z,99.90
2023-02-14T08:03:59.930Z,99.90
2023-02-14T08:06:29.164Z,99.90
2023-02-14T08:08:56.431Z,99.90
2023-02-14T08:11:42.497Z,99.90
2023-02-14T08:14:09.803Z,99.90
2023-02-14T08:16:38.304Z,99.90
2023-02-14T08:19:05.785Z,99.90
2023-02-14T08:24:00.934Z,99.90
2023-02-14T08:26:28.278Z,99.90
2023-02-14T08:28:55.542Z,99.90
2023-02-14T08:31:35.732Z,99.90
2023-02-14T08:34:07.175Z,99.90
2023-02-14T08:36:35.158Z,99.90
2023-02-14T08:39:04.753Z,99.90
2023-02-14T08:41:32.257Z,99.90
2023-02-14T08:43:59.572Z,99.90
2023-02-14T08:46:26.921Z,99.90
2023-02-14T08:48:54.876Z,99.90
2023-02-14T08:51:22.777Z,99.90
2023-02-14T08:53:51.733Z,99.90
2023-02-14T08:56:21.003Z,99.90
2023-02-14T08:58:51.284Z,99.90
2023-02-14T09:01:19.018Z,99.90
2023-02-14T09:03:46.518Z,99.90
2023-02-14T09:06:17.402Z,99.90
2023-02-14T09:08:45.472Z,99.90
2023-02-14T09:11:15.430Z,99.90
2023-02-14T09:13:43.283Z,99.90
2023-02-14T09:16:12.820Z,99.90
2023-02-14T09:18:40.697Z,99.90
2023-02-14T09:21:13.568Z,99.90
2023-02-14T09:23:40.857Z,99.90
2023-02-14T09:26:10.628Z,99.90
2023-02-14T09:28:38.568Z,99.90
2023-02-14T09:31:13.527Z,99.90
2023-02-14T09:33:41.596Z,99.90
2023-02-14T09:36:27.640Z,99.90
2023-02-14T09:41:25.399Z,99.90
2023-02-14T09:44:00.462Z,99.90
2023-02-14T09:46:30.778Z,99.90
2023-02-14T09:48:58.747Z,99.90
2023-02-14T09:51:31.150Z,99.90
2023-02-14T09:54:10.398Z,99.90
2023-02-14T09:57:03.063Z,99.90
2023-02-14T09:59:42.477Z,99.90
2023-02-14T10:02:45.698Z,99.90
2023-02-14T10:05:42.383Z,99.90
2023-02-14T10:08:31.372Z,99.90
2023-02-14T10:11:11.950Z,99.90
2023-02-14T10:13:42.447Z,99.90
2023-02-14T10:16:16.782Z,99.90
2023-02-14T10:18:54.388Z,99.90
2023-02-14T10:21:33.948Z,99.90
2023-02-14T10:24:23.393Z,99.90
2023-02-14T10:26:52.693Z,99.90
2023-02-14T10:29:20.843Z,99.90
2023-02-14T10:31:58.573Z,99.90
2023-02-14T10:34:35.100Z,99.90
2023-02-14T10:37:30.191Z,99.90
2023-02-14T10:40:06.134Z,99.90
2023-02-14T10:43:15.262Z,99.90
2023-02-14T10:45:47.984Z,99.90
2023-02-14T10:48:30.280Z,99.90
2023-02-14T10:51:16.435Z,99.90
2023-02-14T10:54:02.500Z,99.90
2023-02-14T10:56:48.100Z,99.90
2023-02-14T10:59:51.030Z,99.90
2023-02-14T11:02:23.765Z,99.90
2023-02-14T11:04:51.411Z,99.90
2023-02-14T11:07:21.484Z,99.90
2023-02-14T11:09:48.819Z,99.90
2023-02-14T11:12:43.814Z,99.90
2023-02-14T11:15:14.079Z,99.90
2023-02-14T11:17:42.435Z,99.90
2023-02-14T11:20:30.313Z,99.90
2023-02-14T11:22:57.917Z,99.90
2023-02-14T11:25:27.760Z,99.90
2023-02-14T11:28:02.509Z,99.90
2023-02-14T11:30:40.983Z,99.90
2023-02-14T11:33:41.050Z,99.90
2023-02-14T11:36:16.707Z,99.90
2023-02-14T11:38:45.729Z,99.90
2023-02-14T11:41:16.271Z,99.90
2023-02-14T11:43:45.454Z,99.90
2023-02-14T11:46:15.730Z,99.90
2023-02-14T11:49:01.500Z,99.90
2023-02-14T11:51:40.641Z,99.90
2023-02-14T11:54:14.254Z,99.90
2023-02-14T11:56:53.964Z,99.90
2023-02-14T11:59:33.204Z,99.90
2023-02-14T12:02:29.289Z,99.90
2023-02-14T12:05:03.936Z,99.90
2023-02-14T12:07:33.470Z,99.90
2023-02-14T12:10:19.394Z,99.90
2023-02-14T12:12:49.482Z,99.90
2023-02-14T12:15:26.917Z,99.90
2023-02-14T12:18:03.850Z,99.90
2023-02-14T12:21:00.701Z,99.90
2023-02-14T12:23:42.152Z,99.90
2023-02-14T12:26:47.782Z,99.90
2023-02-14T12:29:38.918Z,99.90
2023-02-14T12:32:18.940Z,99.90
2023-02-14T12:34:46.391Z,99.90
2023-02-14T12:37:39.528Z,99.90
2023-02-14T12:40:31.846Z,99.90
2023-02-14T12:43:17.570Z,99.90
2023-02-14T12:46:09.519Z,99.90
2023-02-14T12:49:10.738Z,99.90
2023-02-14T12:52:05.229Z,99.90
2023-02-14T12:54:55.393Z,99.90
2023-02-14T12:58:00.492Z,99.90
2023-02-14T13:00:58.888Z,99.90
2023-02-14T13:03:45.068Z,99.90
2023-02-14T13:06:28.378Z,99.90
2023-02-14T13:09:13.465Z,99.90
2023-02-14T13:12:11.218Z,99.90
2023-02-14T13:14:41.759Z,99.90
2023-02-14T13:17:15.188Z,99.90
2023-02-14T13:20:12.890Z,99.90
2023-02-14T13:22:41.543Z,99.90
2023-02-14T13:25:31.695Z,99.90
2023-02-14T13:28:01.547Z,99.30
2023-02-14T13:30:38.785Z,96.40
2023-02-14T13:33:09.872Z,95.70
2023-02-14T13:35:37.751Z,97.60
2023-02-14T13:38:08.653Z,96.80
2023-02-14T13:40:36.436Z,98.00
2023-02-14T13:43:03.926Z,95.90
2023-02-14T13:45:40.161Z,97.90
2023-02-14T13:48:12.173Z,97.60
2023-02-14T13:50:52.435Z,97.40
2023-02-14T13:53:44.608Z,97.90
2023-02-14T13:56:11.960Z,96.60
2023-02-14T13:58:59.938Z,97.40
2023-02-14T14:01:50.045Z,97.90
2023-02-14T14:04:26.597Z,97.30
2023-02-14T14:07:02.858Z,96.80
2023-02-14T14:09:42.094Z,96.50
2023-02-14T14:12:27.808Z,96.60
2023-02-14T14:15:08.546Z,95.10
2023-02-14T14:17:38.113Z,94.70
2023-02-14T14:20:20.275Z,94.90
2023-02-14T14:22:58.524Z,93.60
2023-02-14T14:25:41.052Z,95.40
2023-02-14T14:28:20.916Z,93.70
2023-02-14T14:30:48.398Z,93.00
2023-02-14T14:33:34.323Z,92.40
2023-02-14T14:36:08.791Z,91.90
2023-02-14T14:38:48.290Z,93.20
2023-02-14T14:41:15.685Z,91.70
2023-02-14T14:43:43.463Z,93.90
2023-02-14T14:46:15.866Z,92.60
2023-02-14T14:48:51.610Z,92.70
2023-02-14T14:51:34.489Z,92.90
2023-02-14T14:54:06.722Z,91.70
2023-02-14T14:56:44.736Z,93.30
2023-02-14T14:59:19.525Z,92.60
2023-02-14T15:01:47.881Z,91.20
2023-02-14T15:04:15.208Z,93.10
2023-02-14T15:06:43.006Z,92.60
2023-02-14T15:09:23.958Z,90.80
2023-02-14T15:12:12.932Z,91.10
2023-02-14T15:14:44.520Z,92.20
2023-02-14T15:17:22.600Z,91.70
2023-02-14T15:20:03.874Z,90.00
2023-02-14T15:22:45.803Z,90.60
2023-02-14T15:25:32.178Z,90.30
2023-02-14T15:28:00.694Z,89.00
2023-02-14T15:30:38.932Z,90.40
2023-02-14T15:33:07.934Z,89.90
2023-02-14T15:35:38.963Z,90.20
2023-02-14T15:38:09.998Z,90.40
2023-02-14T15:40:38.841Z,90.20
2023-02-14T15:43:39.359Z,90.20
2023-02-14T15:46:26.316Z,86.30
2023-02-14T15:48:55.792Z,87.40
2023-02-14T15:51:27.135Z,90.00
2023-02-14T15:54:00.646Z,90.00
2023-02-14T15:56:31.415Z,90.20
2023-02-14T15:59:07.791Z,89.10
2023-02-14T16:01:36.892Z,90.80
2023-02-14T16:04:06.968Z,90.80
2023-02-14T16:06:40.387Z,91.20
2023-02-14T16:09:24.937Z,90.70
2023-02-14T16:11:53.829Z,90.80
2023-02-14T16:14:37.978Z,91.60
2023-02-14T16:17:35.036Z,91.30
2023-02-14T16:20:33.722Z,91.50
2023-02-14T16:23:29.441Z,91.40
2023-02-14T16:25:59.565Z,91.30
2023-02-14T16:28:30.949Z,91.90
2023-02-14T16:31:01.001Z,92.20
2023-02-14T16:33:35.524Z,92.20
2023-02-14T16:36:15.790Z,92.40
2023-02-14T16:38:45.688Z,92.50
2023-02-14T16:41:18.669Z,93.00
2023-02-14T16:43:47.466Z,93.30
2023-02-14T16:46:17.294Z,93.90
2023-02-14T16:48:52.055Z,99.90
2023-02-14T16:51:25.621Z,94.90
2023-02-14T16:53:55.168Z,95.80
2023-02-14T16:56:29.861Z,96.40
2023-02-14T16:59:00.101Z,97.00
2023-02-14T17:06:27.546Z,97.90
2023-02-14T17:08:57.752Z,98.80
2023-02-14T17:11:26.790Z,99.20
2023-02-14T17:13:55.284Z,99.40
2023-02-14T17:16:22.847Z,99.80
2023-02-14T17:18:52.424Z,99.90
2023-02-14T17:21:23.987Z,99.90
2023-02-14T17:23:51.270Z,99.90
2023-02-14T17:26:19.890Z,99.90
2023-02-14T17:28:47.327Z,99.90
2023-02-14T17:31:15.157Z,99.90
2023-02-14T17:33:42.557Z,99.90
2023-02-14T17:36:12.466Z,99.90
2023-02-14T17:38:43.288Z,99.90
2023-02-14T17:41:18.706Z,99.90
2023-02-14T17:43:46.448Z,99.90
2023-02-14T17:46:15.367Z,99.90
2023-02-14T17:48:45.439Z,99.90
2023-02-14T17:51:14.811Z,99.90
2023-02-14T17:53:43.872Z,99.90
2023-02-14T17:56:20.343Z,99.90
2023-02-14T17:58:49.534Z,99.90
2023-02-14T18:01:19.522Z,99.90
2023-02-14T18:03:47.312Z,99.90
2023-02-14T18:06:15.232Z,99.90
2023-02-14T18:08:49.841Z,99.90
2023-02-14T18:11:19.273Z,99.90
2023-02-14T18:13:46.986Z,99.90
2023-02-14T18:16:16.938Z,99.90
2023-02-14T18:18:45.093Z,99.90
2023-02-14T18:21:16.628Z,99.90
2023-02-14T18:23:44.025Z,99.90
2023-02-14T18:26:14.127Z,99.90
2023-02-14T18:28:41.604Z,99.90
2023-02-14T18:31:10.356Z,99.90
2023-02-14T18:33:38.763Z,99.90
2023-02-14T18:36:14.419Z,99.90
2023-02-14T18:38:43.614Z,99.90
2023-02-14T18:41:13.594Z,99.90
2023-02-14T18:43:41.600Z,99.90
2023-02-14T18:46:14.004Z,99.90
2023-02-14T18:48:41.407Z,99.90
2023-02-14T18:51:10.831Z,99.90
2023-02-14T18:53:39.430Z,99.90
2023-02-14T18:56:09.631Z,99.90
2023-02-14T18:58:36.954Z,99.90
2023-02-14T19:01:13.147Z,99.90
2023-02-14T19:03:41.250Z,99.90
2023-02-14T19:06:09.820Z,99.90
2023-02-14T19:08:38.961Z,99.90
2023-02-14T19:11:17.626Z,99.90
2023-02-14T19:13:51.010Z,99.90
2023-02-14T19:16:21.522Z,99.90
2023-02-14T19:21:26.006Z,99.90
2023-02-14T19:23:56.192Z,99.90
2023-02-14T19:26:29.834Z,99.90
2023-02-14T19:29:01.996Z,99.90
2023-02-14T19:33:58.203Z,99.90
2023-02-14T19:36:25.551Z,99.90
2023-02-14T19:38:54.164Z,99.90
2023-02-14T19:41:25.184Z,99.90
2023-02-14T19:43:55.095Z,99.90
2023-02-14T19:46:22.439Z,99.90
2023-02-14T19:48:49.998Z,99.90
2023-02-14T19:51:21.492Z,99.90
2023-02-14T19:53:49.760Z,99.90
2023-02-14T19:56:22.246Z,99.90
2023-02-14T19:58:50.708Z,99.90
2023-02-14T20:01:41.513Z,99.90
2023-02-14T20:04:12.074Z,99.90
2023-02-14T20:06:39.383Z,99.90
2023-02-14T20:09:07.772Z,99.90
2023-02-14T20:11:49.894Z,99.90
2023-02-14T20:14:23.035Z,99.90
2023-02-14T20:16:51.815Z,99.90
2023-02-14T20:19:23.073Z,99.90
2023-02-14T20:21:51.217Z,99.90
2023-02-14T20:24:25.174Z,99.90
2023-02-14T20:26:53.324Z,99.90
2023-02-14T20:29:22.651Z,99.90
2023-02-14T20:31:52.670Z,99.90
2023-02-14T20:34:20.049Z,99.90
2023-02-14T20:36:52.946Z,99.90
2023-02-14T20:39:22.294Z,99.90
2023-02-14T20:41:53.951Z,99.90
2023-02-14T20:44:21.680Z,99.90
2023-02-14T20:46:51.613Z,99.90
2023-02-14T20:49:20.282Z,99.90
2023-02-14T20:51:49.690Z,99.90
2023-02-14T20:54:22.232Z,99.90
2023-02-14T20:56:50.777Z,99.90
2023-02-14T20:59:19.375Z,99.90
2023-02-14T21:01:47.331Z,99.90
2023-02-14T21:04:16.479Z,99.90
2023-02-14T21:06:43.894Z,99.90
2023-02-14T21:09:11.168Z,99.90
2023-02-14T21:11:38.486Z,99.90
2023-02-14T21:14:05.775Z,99.90
2023-02-14T21:16:33.371Z,99.90
2023-02-14T21:19:00.829Z,99.90
2023-02-14T21:21:32.511Z,99.90
2023-02-14T21:24:01.909Z,99.90
2023-02-14T21:26:29.335Z,99.90
2023-02-14T21:28:56.843Z,99.90
2023-02-14T21:31:27.457Z,99.90
2023-02-14T21:33:57.414Z,99.90
2023-02-14T21:36:27.048Z,99.90
2023-02-14T21:38:58.699Z,99.90
2023-02-14T21:41:28.787Z,99.90
2023-02-14T21:43:58.700Z,99.90
2023-02-14T21:46:31.290Z,99.90
2023-02-14T21:49:19.048Z,99.90
2023-02-14T21:51:47.158Z,99.90
2023-02-14T21:54:15.117Z,99.90
2023-02-14T21:56:43.002Z,99.90
2023-02-14T21:59:10.338Z,99.90
2023-02-14T22:01:40.148Z,99.90
2023-02-14T22:04:09.926Z,99.90
2023-02-14T22:06:39.107Z,99.90
2023-02-14T22:09:06.932Z,99.90
2023-02-14T22:11:34.920Z,99.90
2023-02-14T22:14:02.780Z,99.90
2023-02-14T22:16:30.156Z,99.90
2023-02-14T22:21:26.959Z,99.90
2023-02-14T22:23:55.664Z,99.90
2023-02-14T22:26:25.806Z,99.90
2023-02-14T22:29:03.129Z,99.90
2023-02-14T22:31:34.830Z,99.90
2023-02-14T22:38:58.254Z,99.90
2023-02-14T22:41:26.469Z,99.90
2023-02-14T22:43:53.941Z,99.90
2023-02-14T22:46:27.485Z,99.90
2023-02-14T22:48:55.929Z,99.90
2023-02-14T22:51:26.212Z,99.90
2023-02-14T22:53:58.304Z,99.90
2023-02-14T22:56:31.430Z,99.90
2023-02-14T22:59:01.679Z,99.90
2023-02-14T23:01:28.932Z,99.90
2023-02-14T23:03:58.246Z,99.90
2023-02-14T23:06:28.185Z,99.90
2023-02-14T23:08:56.571Z,99.90
2023-02-14T23:11:29.698Z,99.90
2023-02-14T23:14:15.475Z,99.90
2023-02-14T23:17:01.738Z,99.90
2023-02-14T23:19:53.674Z,99.90
2023-02-14T23:22:36.607Z,99.90
2023-02-14T23:25:07.276Z,99.90
2023-02-14T23:27:44.361Z,99.90
2023-02-14T23:30:13.518Z,99.90
2023-02-14T23:32:40.711Z,99.90
2023-02-14T23:35:08.637Z,99.90
2023-02-14T23:37:35.931Z,99.90
2023-02-14T23:40:04.088Z,99.90
2023-02-14T23:42:31.407Z,99.90
2023-02-14T23:45:18.721Z,99.90
2023-02-14T23:47:46.124Z,99.90
2023-02-14T23:50:13.798Z,99.90
2023-02-14T23:52:41.833Z,99.90
2023-02-14T23:55:09.453Z,99.90
2023-02-14T23:57:37.107Z,99.90
